Time;durP1;ratioP1;P1;durP2;ratioP2;P2;SDS_P1;SDS_P2;PMS_P1;PMS_P2;Temp;Humidity;BMP_temperature;BMP_pressure;BME280_temperature;BME280_humidity;BME280_pressure;Samples;Min_cycle;Max_cycle;Signal;HPM_P1;HPM_P2
2021/10/05 00:02:09;;;;;;;4.50;2.03;;;10.90;99.90;;;;;;4999232;28;20037;-74
2021/10/05 00:04:35;;;;;;;4.88;2.47;;;10.90;99.90;;;;;;4989198;28;20035;-75
2021/10/05 00:07:01;;;;;;;14.75;2.53;;;10.90;99.90;;;;;;4986642;28;20077;-75
2021/10/05 00:09:26;;;;;;;4.93;2.50;;;10.90;99.90;;;;;;4986406;28;20101;-75
2021/10/05 00:11:52;;;;;;;3.25;1.98;;;10.90;99.90;;;;;;4987043;28;20038;-74
2021/10/05 00:14:18;;;;;;;5.07;2.35;;;10.90;99.90;;;;;;4986496;28;20034;-74
2021/10/05 00:16:44;;;;;;;10.13;2.22;;;10.80;99.90;;;;;;4986610;28;20105;-74
2021/10/05 00:19:09;;;;;;;2.78;1.95;;;10.80;99.90;;;;;;4986691;28;20027;-74
2021/10/05 00:21:35;;;;;;;8.02;2.38;;;10.90;99.90;;;;;;4986333;28;20061;-74
2021/10/05 00:24:01;;;;;;;4.47;2.22;;;10.80;99.90;;;;;;4969049;28;20027;-74
2021/10/05 00:26:26;;;;;;;4.80;2.08;;;10.80;99.90;;;;;;4986732;28;20027;-74
2021/10/05 00:28:52;;;;;;;3.25;2.13;;;10.80;99.90;;;;;;4986249;28;20026;-74
2021/10/05 00:31:17;;;;;;;6.70;2.55;;;10.70;99.90;;;;;;4986233;28;20033;-74
2021/10/05 00:33:43;;;;;;;4.28;2.38;;;10.70;99.90;;;;;;4986649;28;20034;-74
2021/10/05 00:36:08;;;;;;;2.35;1.75;;;10.60;99.90;;;;;;4986106;28;20035;-74
2021/10/05 00:38:34;;;;;;;3.40;2.13;;;10.60;99.90;;;;;;4968969;28;20495;-75
2021/10/05 00:41:00;;;;;;;3.40;2.38;;;10.50;99.90;;;;;;4986414;28;20471;-74
2021/10/05 00:43:26;;;;;;;8.32;2.90;;;10.50;99.90;;;;;;4986206;28;20050;-75
2021/10/05 00:45:51;;;;;;;7.75;2.30;;;10.50;99.90;;;;;;4985823;28;20031;-74
2021/10/05 00:48:17;;;;;;;3.97;2.15;;;10.50;99.90;;;;;;4994915;28;20109;-74
2021/10/05 00:50:44;;;;;;;6.68;2.83;;;10.50;99.90;;;;;;5001149;28;20037;-74
2021/10/05 00:53:11;;;;;;;3.33;1.92;;;10.40;99.90;;;;;;5005463;28;20041;-74
2021/10/05 00:55:37;;;;;;;3.30;2.08;;;10.40;99.90;;;;;;5004970;28;20041;-74
2021/10/05 00:58:04;;;;;;;3.92;1.95;;;10.40;99.90;;;;;;5005199;28;20023;-74
2021/10/05 01:00:30;;;;;;;4.28;2.03;;;10.40;99.90;;;;;;5005476;28;20426;-74
2021/10/05 01:02:57;;;;;;;3.88;2.20;;;10.40;99.90;;;;;;5005206;28;20035;-74
2021/10/05 01:05:23;;;;;;;5.40;2.25;;;10.40;99.90;;;;;;4987760;28;20041;-73
2021/10/05 01:07:49;;;;;;;5.55;2.22;;;10.40;99.90;;;;;;5005236;28;20030;-73
2021/10/05 01:10:17;;;;;;;4.45;2.30;;;10.40;99.90;;;;;;5004881;28;20023;-74
2021/10/05 01:12:45;;;;;;;6.78;2.25;;;10.40;99.90;;;;;;4987590;28;20042;-74
2021/10/05 01:15:11;;;;;;;4.20;2.13;;;10.40;99.90;;;;;;5005209;28;20042;-74
2021/10/05 01:17:37;;;;;;;4.15;2.22;;;10.40;99.90;;;;;;5004666;28;20042;-74
2021/10/05 01:20:03;;;;;;;5.78;2.60;;;10.30;99.90;;;;;;4987655;28;20023;-74
2021/10/05 01:22:29;;;;;;;3.65;2.30;;;10.30;99.90;;;;;;4987675;28;20448;-75
2021/10/05 01:24:54;;;;;;;9.35;2.50;;;10.30;99.90;;;;;;5004873;28;20035;-74
2021/10/05 01:27:20;;;;;;;4.35;2.13;;;10.30;99.90;;;;;;5005070;28;20027;-74
2021/10/05 01:29:45;;;;;;;6.03;2.33;;;10.20;99.90;;;;;;4987461;28;20030;-74
2021/10/05 01:32:11;;;;;;;3.50;2.05;;;10.30;99.90;;;;;;5004409;28;20045;-73
2021/10/05 01:34:36;;;;;;;4.10;2.53;;;10.30;99.90;;;;;;4987587;28;20068;-75
2021/10/05 01:37:03;;;;;;;5.50;2.58;;;10.30;99.90;;;;;;5004983;28;20038;-74
2021/10/05 01:39:33;;;;;;;9.68;2.78;;;10.20;99.90;;;;;;5004641;28;20029;-74
2021/10/05 01:42:02;;;;;;;4.25;2.38;;;10.20;99.90;;;;;;5005143;28;20023;-74
2021/10/05 01:44:28;;;;;;;3.78;2.50;;;10.20;99.90;;;;;;5005132;28;20022;-74
2021/10/05 01:46:54;;;;;;;4.15;2.38;;;10.20;99.90;;;;;;5004241;28;20495;-74
2021/10/05 01:49:21;;;;;;;4.88;2.53;;;10.10;99.90;;;;;;5005075;28;20057;-74
2021/10/05 01:51:46;;;;;;;4.13;2.60;;;10.10;99.90;;;;;;4986786;28;20054;-74
2021/10/05 01:54:13;;;;;;;5.28;2.30;;;10.10;99.90;;;;;;5004567;28;20022;-74
2021/10/05 01:56:40;;;;;;;5.45;2.10;;;10.00;99.90;;;;;;5004831;28;20046;-74
2021/10/05 01:59:13;;;;;;;5.50;2.70;;;10.10;99.90;;;;;;5004321;28;20023;-74
2021/10/05 02:01:41;;;;;;;5.30;3.00;;;10.10;99.90;;;;;;4987150;28;20124;-74
2021/10/05 02:04:08;;;;;;;5.68;2.40;;;10.00;99.90;;;;;;5004917;28;20029;-74
2021/10/05 02:06:37;;;;;;;6.80;2.78;;;10.00;99.90;;;;;;5007206;28;20034;-74
2021/10/05 02:09:05;;;;;;;4.63;2.58;;;10.00;99.90;;;;;;5008767;28;20038;-74
2021/10/05 02:11:30;;;;;;;4.28;2.42;;;9.90;99.90;;;;;;5008613;28;20053;-74
2021/10/05 02:13:56;;;;;;;5.65;1.98;;;9.90;99.90;;;;;;5008195;28;20030;-73
2021/10/05 02:16:22;;;;;;;4.93;2.28;;;9.90;99.90;;;;;;5008582;28;20035;-73
2021/10/05 02:18:48;;;;;;;6.90;2.65;;;9.80;99.90;;;;;;4990864;28;20035;-73
2021/10/05 02:21:15;;;;;;;5.93;3.00;;;9.80;99.90;;;;;;5007769;28;20031;-74
2021/10/05 02:26:26;;;;;;;5.28;3.03;;;9.70;99.90;;;;;;5008359;28;20037;-75
2021/10/05 02:28:55;;;;;;;5.05;2.30;;;9.70;99.90;;;;;;5007975;28;20034;-75
2021/10/05 02:31:21;;;;;;;4.80;3.05;;;9.60;99.90;;;;;;5008193;28;20056;-74
2021/10/05 02:33:47;;;;;;;4.47;2.50;;;9.60;99.90;;;;;;5008217;28;20901;-74
2021/10/05 02:36:12;;;;;;;4.57;2.92;;;9.60;99.90;;;;;;5007892;28;20035;-74
2021/10/05 02:38:38;;;;;;;10.45;3.60;;;9.70;99.90;;;;;;5008263;28;20033;-74
2021/10/05 02:41:04;;;;;;;5.65;3.25;;;9.70;99.90;;;;;;4990531;28;20057;-73
2021/10/05 02:43:30;;;;;;;11.98;2.85;;;9.70;99.90;;;;;;5007762;28;20027;-74
2021/10/05 02:45:55;;;;;;;6.45;3.17;;;9.70;99.90;;;;;;5007838;28;20058;-74
2021/10/05 02:48:21;;;;;;;9.27;3.13;;;9.70;99.90;;;;;;5007724;28;20042;-73
2021/10/05 02:50:47;;;;;;;5.13;3.00;;;9.70;99.90;;;;;;5007790;28;20477;-73
2021/10/05 02:53:16;;;;;;;8.20;3.00;;;9.70;99.90;;;;;;5007793;28;20042;-74
2021/10/05 02:55:43;;;;;;;6.30;3.20;;;9.70;99.90;;;;;;5007352;28;20031;-74
2021/10/05 02:58:09;;;;;;;4.82;2.75;;;9.80;99.90;;;;;;5007420;28;20026;-75
2021/10/05 03:00:35;;;;;;;4.85;2.83;;;9.70;99.90;;;;;;5008000;28;20133;-74
2021/10/05 03:03:00;;;;;;;5.22;2.88;;;9.70;99.90;;;;;;4989668;28;20426;-74
2021/10/05 03:05:26;;;;;;;7.80;3.33;;;9.70;99.90;;;;;;5007972;28;20022;-75
2021/10/05 03:07:52;;;;;;;5.95;3.28;;;9.70;99.90;;;;;;5007551;28;20479;-74
2021/10/05 03:10:17;;;;;;;10.40;3.78;;;9.70;99.90;;;;;;4989445;28;20026;-74
2021/10/05 03:12:43;;;;;;;6.13;3.60;;;9.70;99.90;;;;;;5007581;28;20042;-74
2021/10/05 03:15:09;;;;;;;6.00;3.80;;;9.70;99.90;;;;;;5007663;28;20030;-74
2021/10/05 03:17:35;;;;;;;5.82;2.92;;;9.70;99.90;;;;;;5006231;28;20026;-74
2021/10/05 03:20:01;;;;;;;4.70;2.78;;;9.70;99.90;;;;;;5007573;28;20026;-74
2021/10/05 03:22:27;;;;;;;13.40;3.80;;;9.70;99.90;;;;;;4989559;28;20030;-75
2021/10/05 03:24:53;;;;;;;7.07;3.65;;;9.70;99.90;;;;;;5006786;28;20113;-74
2021/10/05 03:27:19;;;;;;;9.63;3.35;;;9.70;99.90;;;;;;5007408;28;20105;-75
2021/10/05 03:29:44;;;;;;;9.07;3.63;;;9.70;99.90;;;;;;5006923;28;20105;-75
2021/10/05 03:32:10;;;;;;;8.48;3.88;;;9.70;99.90;;;;;;5006079;28;20045;-74
2021/10/05 03:34:36;;;;;;;5.43;3.38;;;9.70;99.90;;;;;;5007080;28;20470;-75
2021/10/05 03:37:01;;;;;;;7.53;2.88;;;9.60;99.90;;;;;;5006840;28;20451;-74
2021/10/05 03:39:27;;;;;;;6.65;3.13;;;9.60;99.90;;;;;;5007013;28;20109;-75
2021/10/05 03:41:53;;;;;;;4.60;2.97;;;9.60;99.90;;;;;;5006962;28;20038;-74
2021/10/05 03:44:18;;;;;;;7.32;3.42;;;9.60;99.90;;;;;;5006461;28;20027;-72
2021/10/05 03:46:44;;;;;;;6.25;3.08;;;9.50;99.90;;;;;;5006263;28;20078;-73
2021/10/05 03:49:10;;;;;;;6.75;3.33;;;9.50;99.90;;;;;;4989436;28;20123;-74
2021/10/05 03:51:35;;;;;;;7.32;3.40;;;9.40;99.90;;;;;;4989212;28;20109;-74
2021/10/05 03:54:01;;;;;;;5.40;3.10;;;9.40;99.90;;;;;;4989072;28;20034;-75
2021/10/05 03:56:27;;;;;;;12.95;2.92;;;9.40;99.90;;;;;;5006978;28;20023;-75
2021/10/05 03:58:53;;;;;;;5.90;3.05;;;9.30;99.90;;;;;;5006268;28;20042;-73
2021/10/05 04:01:19;;;;;;;7.25;3.05;;;9.30;99.90;;;;;;4988643;28;20046;-74
2021/10/05 04:03:45;;;;;;;7.03;3.17;;;9.30;99.90;;;;;;4989075;28;20035;-74
2021/10/05 04:06:10;;;;;;;8.32;3.47;;;9.30;99.90;;;;;;5005961;28;20062;-74
2021/10/05 04:08:36;;;;;;;6.75;3.45;;;9.30;99.90;;;;;;5006569;28;20029;-75
2021/10/05 04:11:08;;;;;;;6.20;3.33;;;9.30;99.90;;;;;;5006143;28;20027;-75
2021/10/05 04:13:34;;;;;;;5.13;3.08;;;9.30;99.90;;;;;;5006205;28;20041;-73
2021/10/05 04:16:00;;;;;;;5.15;2.65;;;9.20;99.90;;;;;;5006269;28;20409;-75
2021/10/05 04:18:26;;;;;;;11.02;4.13;;;9.20;99.90;;;;;;5006139;28;20034;-76
2021/10/05 04:20:55;;;;;;;7.05;3.90;;;9.30;99.90;;;;;;5006131;28;20030;-74
2021/10/05 04:23:20;;;;;;;6.93;3.83;;;9.30;99.90;;;;;;5005937;28;20022;-74
2021/10/05 04:25:46;;;;;;;5.75;3.45;;;9.30;99.90;;;;;;5005692;28;20026;-74
2021/10/05 04:28:11;;;;;;;6.70;2.75;;;9.30;99.90;;;;;;5005721;28;20030;-73
2021/10/05 04:30:37;;;;;;;6.72;3.15;;;9.30;99.90;;;;;;5005266;28;20026;-74
2021/10/05 04:33:03;;;;;;;7.10;3.42;;;9.30;99.90;;;;;;5005530;28;20050;-74
2021/10/05 04:35:28;;;;;;;7.97;3.28;;;9.30;99.90;;;;;;5005879;28;20038;-75
2021/10/05 04:37:54;;;;;;;6.93;3.70;;;9.20;99.90;;;;;;4988465;28;20026;-73
2021/10/05 04:40:20;;;;;;;12.02;4.45;;;9.20;99.90;;;;;;5005503;28;20090;-73
2021/10/05 04:42:45;;;;;;;6.10;3.58;;;9.20;99.90;;;;;;5005962;28;20034;-74
2021/10/05 04:45:11;;;;;;;9.73;3.47;;;9.20;99.90;;;;;;4988254;28;20022;-73
2021/10/05 04:47:37;;;;;;;11.95;3.95;;;9.20;99.90;;;;;;4987366;28;20050;-73
2021/10/05 04:50:05;;;;;;;11.20;3.80;;;9.20;99.90;;;;;;5005709;28;20042;-74
2021/10/05 04:52:31;;;;;;;8.27;4.13;;;9.20;99.90;;;;;;5005248;28;20035;-74
2021/10/05 04:54:57;;;;;;;8.40;3.28;;;9.20;99.90;;;;;;4987826;28;20030;-74
2021/10/05 04:57:24;;;;;;;7.47;3.55;;;9.20;99.90;;;;;;5005769;28;20026;-73
2021/10/05 04:59:49;;;;;;;7.13;3.58;;;9.20;99.90;;;;;;5005225;28;20357;-72
2021/10/05 05:02:15;;;;;;;7.55;3.38;;;9.20;99.90;;;;;;5005335;28;20023;-73
2021/10/05 05:04:40;;;;;;;6.93;3.60;;;9.10;99.90;;;;;;4987768;28;20033;-73
2021/10/05 05:07:06;;;;;;;6.07;3.13;;;9.20;99.90;;;;;;5004942;28;20023;-72
2021/10/05 05:09:31;;;;;;;11.88;4.22;;;9.10;99.90;;;;;;5004851;28;20027;-73
2021/10/05 05:11:57;;;;;;;7.78;4.45;;;9.20;99.90;;;;;;5005424;28;20089;-73
2021/10/05 05:14:23;;;;;;;6.95;3.75;;;9.10;99.90;;;;;;5005025;28;20041;-73
2021/10/05 05:16:49;;;;;;;7.25;3.85;;;9.10;99.90;;;;;;5005217;28;20034;-73
2021/10/05 05:19:15;;;;;;;11.40;4.28;;;9.10;99.90;;;;;;5004944;28;20040;-73
2021/10/05 05:21:40;;;;;;;7.00;3.38;;;9.20;99.90;;;;;;5004684;28;20030;-74
2021/10/05 05:24:06;;;;;;;6.63;3.67;;;9.20;99.90;;;;;;4987662;28;20026;-73
2021/10/05 05:26:32;;;;;;;7.35;3.58;;;9.20;99.90;;;;;;4987506;28;20034;-73
2021/10/05 05:28:58;;;;;;;8.02;3.75;;;9.20;99.90;;;;;;5004922;28;20035;-73
2021/10/05 05:31:23;;;;;;;5.47;3.13;;;9.20;99.90;;;;;;5005086;28;20031;-72
2021/10/05 05:33:49;;;;;;;13.02;4.43;;;9.10;99.90;;;;;;5004986;28;20030;-72
2021/10/05 05:36:15;;;;;;;8.52;4.40;;;9.10;99.90;;;;;;5004648;28;20034;-72
2021/10/05 05:38:40;;;;;;;5.90;3.30;;;9.10;99.90;;;;;;5004876;28;20390;-73
2021/10/05 05:41:07;;;;;;;7.53;4.10;;;9.10;99.90;;;;;;5004293;28;20049;-72
2021/10/05 05:43:33;;;;;;;5.72;3.03;;;9.10;99.90;;;;;;5004795;28;20038;-72
2021/10/05 05:45:59;;;;;;;6.93;3.70;;;9.10;99.90;;;;;;5004923;28;20081;-73
2021/10/05 05:48:24;;;;;;;5.60;3.88;;;9.10;99.90;;;;;;5004491;28;20042;-71
2021/10/05 05:50:50;;;;;;;6.57;3.90;;;9.10;99.90;;;;;;5005053;28;20068;-73
2021/10/05 05:53:17;;;;;;;18.45;4.70;;;9.10;99.90;;;;;;5004525;28;20100;-73
2021/10/05 05:55:44;;;;;;;8.63;4.32;;;9.10;99.90;;;;;;5005050;28;20038;-72
2021/10/05 05:58:15;;;;;;;9.50;3.95;;;9.10;99.90;;;;;;5004880;28;20023;-72
2021/10/05 06:00:42;;;;;;;8.38;4.20;;;9.20;99.90;;;;;;5004621;28;20037;-73
2021/10/05 06:03:07;;;;;;;18.67;4.72;;;9.20;99.90;;;;;;5004441;28;20405;-72
2021/10/05 06:05:33;;;;;;;7.68;4.50;;;9.20;99.90;;;;;;5004595;28;20030;-72
2021/10/05 06:07:59;;;;;;;9.40;4.90;;;9.20;99.90;;;;;;5004567;28;20034;-73
2021/10/05 06:10:25;;;;;;;8.20;4.20;;;9.20;99.90;;;;;;5004682;28;20090;-72
2021/10/05 06:12:53;;;;;;;12.48;4.97;;;9.20;99.90;;;;;;5004682;28;20038;-73
2021/10/05 06:15:20;;;;;;;8.43;4.18;;;9.20;99.90;;;;;;5004094;28;20019;-72
2021/10/05 06:17:45;;;;;;;11.13;4.88;;;9.20;99.90;;;;;;4996860;28;20029;-72
2021/10/05 06:20:13;;;;;;;12.27;4.63;;;9.30;99.90;;;;;;5006297;28;20519;-72
2021/10/05 06:22:40;;;;;;;10.45;4.38;;;9.30;99.90;;;;;;4991202;28;20038;-72
2021/10/05 06:25:12;;;;;;;8.07;3.97;;;9.30;99.90;;;;;;4991970;28;20023;-73
2021/10/05 06:27:42;;;;;;;10.18;4.50;;;9.30;99.90;;;;;;5004464;28;20027;-72
2021/10/05 06:30:10;;;;;;;11.10;4.00;;;9.30;99.90;;;;;;5001085;28;20026;-72
2021/10/05 06:32:35;;;;;;;11.45;3.90;;;9.40;99.90;;;;;;4997764;28;20038;-72
2021/10/05 06:35:02;;;;;;;9.88;4.72;;;9.40;99.90;;;;;;5000833;28;20057;-72
2021/10/05 06:37:28;;;;;;;9.35;4.43;;;9.40;99.90;;;;;;4995219;28;20033;-73
2021/10/05 06:39:54;;;;;;;13.55;5.40;;;9.50;99.90;;;;;;4987011;28;20137;-73
2021/10/05 06:42:19;;;;;;;7.63;4.13;;;9.50;99.90;;;;;;4992818;28;20125;-72
2021/10/05 06:44:47;;;;;;;11.50;4.57;;;9.50;99.90;;;;;;4990112;28;20054;-72
2021/10/05 06:47:14;;;;;;;9.55;4.22;;;9.60;99.90;;;;;;5008638;28;20117;-72
2021/10/05 06:49:40;;;;;;;14.40;5.45;;;9.60;99.90;;;;;;5003224;28;20491;-73
2021/10/05 06:52:06;;;;;;;8.73;4.38;;;9.70;99.90;;;;;;4993459;28;20039;-72
2021/10/05 06:54:32;;;;;;;9.85;4.57;;;9.70;99.90;;;;;;4999542;28;20040;-72
2021/10/05 06:56:59;;;;;;;9.68;4.70;;;9.70;99.90;;;;;;4996873;28;20031;-73
2021/10/05 06:59:24;;;;;;;12.48;4.95;;;9.70;99.90;;;;;;5003971;28;20042;-73
2021/10/05 07:01:50;;;;;;;9.93;4.82;;;9.80;99.90;;;;;;5001104;28;20084;-72
2021/10/05 07:04:16;;;;;;;8.07;3.63;;;9.80;99.90;;;;;;5007141;28;20057;-72
2021/10/05 07:06:44;;;;;;;7.75;4.25;;;9.90;99.90;;;;;;5007396;28;20030;-73
2021/10/05 07:09:11;;;;;;;5.75;3.55;;;9.90;99.90;;;;;;5005306;28;20102;-71
2021/10/05 07:11:37;;;;;;;7.70;3.85;;;9.90;99.90;;;;;;5005041;28;20034;-73
2021/10/05 07:14:03;;;;;;;9.32;4.32;;;10.00;99.90;;;;;;5005016;28;20034;-73
2021/10/05 07:16:28;;;;;;;8.52;4.20;;;10.00;99.90;;;;;;5006390;28;20057;-73
2021/10/05 07:18:54;;;;;;;8.48;3.85;;;10.10;99.90;;;;;;4989455;28;20057;-72
2021/10/05 07:21:22;;;;;;;7.88;3.65;;;10.10;99.90;;;;;;5001449;28;20128;-72
2021/10/05 07:23:48;;;;;;;9.32;3.78;;;10.10;99.90;;;;;;5005620;28;20034;-72
2021/10/05 07:26:15;;;;;;;6.88;3.80;;;10.20;99.90;;;;;;5005784;28;20065;-73
2021/10/05 07:28:40;;;;;;;6.68;3.88;;;10.20;99.90;;;;;;5005797;28;20074;-72
2021/10/05 07:31:06;;;;;;;5.97;3.33;;;10.30;99.90;;;;;;5005081;28;20026;-73
2021/10/05 07:33:32;;;;;;;9.20;4.20;;;10.30;99.90;;;;;;5006980;28;20048;-73
2021/10/05 07:35:57;;;;;;;9.35;4.10;;;10.40;99.90;;;;;;5005260;28;20034;-72
2021/10/05 07:38:23;;;;;;;8.07;4.53;;;10.40;99.90;;;;;;5006752;28;20037;-73
2021/10/05 07:40:49;;;;;;;8.43;3.92;;;10.50;99.90;;;;;;5006841;28;20077;-72
2021/10/05 07:43:14;;;;;;;11.20;4.55;;;10.50;99.90;;;;;;5006700;28;20086;-73
2021/10/05 07:45:41;;;;;;;8.27;4.30;;;10.50;99.90;;;;;;5006512;28;20034;-72
2021/10/05 07:48:07;;;;;;;5.63;3.40;;;10.60;99.90;;;;;;5006429;28;20117;-73
2021/10/05 07:50:34;;;;;;;6.80;3.63;;;10.60;99.90;;;;;;5006814;28;20034;-73
2021/10/05 07:53:00;;;;;;;6.88;3.92;;;10.60;99.90;;;;;;5005800;28;20057;-73
2021/10/05 07:55:31;;;;;;;7.15;3.92;;;10.70;99.90;;;;;;5004503;28;20026;-73
2021/10/05 07:57:57;;;;;;;14.02;3.92;;;10.70;99.90;;;;;;5006798;28;20037;-73
2021/10/05 08:00:23;;;;;;;10.65;4.80;;;10.70;99.90;;;;;;5006326;28;20030;-72
2021/10/05 08:02:49;;;;;;;8.18;3.30;;;10.80;99.90;;;;;;5007364;28;20030;-72
2021/10/05 08:05:15;;;;;;;9.80;4.22;;;10.80;99.90;;;;;;5007143;28;20086;-73
2021/10/05 08:07:43;;;;;;;6.65;3.75;;;10.80;99.90;;;;;;5006184;28;20054;-72
2021/10/05 08:10:10;;;;;;;9.25;4.10;;;10.90;99.90;;;;;;5006335;28;20026;-73
2021/10/05 08:12:36;;;;;;;11.18;3.78;;;10.90;99.90;;;;;;5006388;28;20077;-73
2021/10/05 08:15:02;;;;;;;10.68;4.78;;;11.00;99.90;;;;;;5006080;28;20026;-72
2021/10/05 08:17:30;;;;;;;18.80;4.22;;;11.00;99.90;;;;;;4987699;28;20030;-74
2021/10/05 08:19:56;;;;;;;6.72;4.03;;;11.10;99.90;;;;;;5006727;28;20035;-72
2021/10/05 08:22:22;;;;;;;8.07;3.42;;;11.10;99.90;;;;;;4988274;28;20023;-71
2021/10/05 08:24:48;;;;;;;8.60;3.83;;;11.20;99.90;;;;;;5005965;28;20795;-71
2021/10/05 08:27:14;;;;;;;8.05;3.53;;;11.20;99.90;;;;;;4999481;28;20027;-73
2021/10/05 08:29:45;;;;;;;7.68;4.00;;;11.30;99.90;;;;;;5004851;28;20045;-73
2021/10/05 08:32:11;;;;;;;7.63;3.67;;;11.30;99.90;;;;;;5004323;28;20045;-72
2021/10/05 08:34:37;;;;;;;6.57;3.33;;;11.30;99.90;;;;;;5005129;28;20023;-72
2021/10/05 08:37:03;;;;;;;10.38;4.53;;;11.40;99.90;;;;;;5004863;28;20110;-73
2021/10/05 08:39:30;;;;;;;7.68;3.90;;;11.50;99.90;;;;;;4986756;28;21306;-72
2021/10/05 08:42:00;;;;;;;12.18;4.05;;;11.60;99.90;;;;;;5001640;28;20030;-72
2021/10/05 08:44:29;;;;;;;6.18;3.40;;;11.70;99.90;;;;;;5000127;28;20039;-71
2021/10/05 08:46:55;;;;;;;6.13;3.75;;;11.80;99.90;;;;;;5004251;28;20046;-72
2021/10/05 08:49:22;;;;;;;8.57;4.50;;;11.80;99.90;;;;;;5000605;28;20086;-72
2021/10/05 08:51:48;;;;;;;7.50;3.47;;;11.90;99.90;;;;;;4999041;28;20041;-72
2021/10/05 08:54:14;;;;;;;5.43;3.03;;;12.00;99.90;;;;;;4995975;28;20102;-72
2021/10/05 08:56:44;;;;;;;6.15;3.30;;;12.00;99.90;;;;;;5004347;28;20042;-72
2021/10/05 08:59:11;;;;;;;7.28;3.42;;;12.10;99.90;;;;;;5004621;28;20057;-72
2021/10/05 09:01:37;;;;;;;7.68;3.38;;;12.10;99.90;;;;;;5002125;28;20038;-74
2021/10/05 09:04:04;;;;;;;7.82;3.70;;;12.20;99.90;;;;;;5002327;28;20031;-72
2021/10/05 09:06:31;;;;;;;9.52;2.95;;;12.30;99.90;;;;;;5004500;28;20026;-73
2021/10/05 09:09:01;;;;;;;6.03;3.75;;;12.30;99.90;;;;;;5000276;28;20034;-72
2021/10/05 09:11:39;;;;;;;6.30;2.83;;;12.40;99.90;;;;;;5000007;28;20038;-74
2021/10/05 09:14:06;;;;;;;7.82;3.30;;;12.40;99.90;;;;;;4998571;28;20072;-75
2021/10/05 09:16:35;;;;;;;8.20;3.65;;;12.40;99.90;;;;;;4997650;28;20030;-75
2021/10/05 09:19:16;;;;;;;5.30;3.35;;;12.50;99.90;;;;;;4972321;28;20026;-73
2021/10/05 09:21:43;;;;;;;4.68;3.15;;;12.60;99.90;;;;;;4997271;28;20030;-73
2021/10/05 09:24:14;;;;;;;6.30;3.50;;;12.60;99.90;;;;;;5002335;28;20061;-73
2021/10/05 09:26:54;;;;;;;3.80;2.78;;;12.70;99.90;;;;;;4979067;28;20030;-72
2021/10/05 09:29:21;;;;;;;7.30;3.38;;;12.80;99.90;;;;;;4995768;28;20037;-70
2021/10/05 09:32:08;;;;;;;5.28;3.22;;;12.80;99.90;;;;;;5003585;28;20112;-72
2021/10/05 09:34:56;;;;;;;4.97;2.45;;;12.80;99.90;;;;;;5005020;28;20113;-73
2021/10/05 09:37:31;;;;;;;5.13;2.70;;;12.90;99.90;;;;;;4998146;28;20551;-73
2021/10/05 09:40:11;;;;;;;6.47;2.67;;;12.90;99.90;;;;;;4992737;28;20034;-74
2021/10/05 09:42:44;;;;;;;5.55;2.90;;;12.90;99.90;;;;;;4988522;28;20042;-73
2021/10/05 09:45:24;;;;;;;5.40;3.42;;;13.00;99.90;;;;;;4999337;28;20030;-73
2021/10/05 09:47:55;;;;;;;13.88;3.03;;;13.00;99.90;;;;;;4990239;28;20674;-74
2021/10/05 09:50:28;;;;;;;6.43;3.05;;;13.00;99.90;;;;;;4991434;28;20771;-73
2021/10/05 09:53:03;;;;;;;5.10;2.80;;;13.10;99.90;;;;;;4997551;28;20042;-73
2021/10/05 09:55:47;;;;;;;9.25;2.67;;;13.10;99.90;;;;;;5004073;28;20026;-74
2021/10/05 09:58:17;;;;;;;4.18;2.55;;;13.10;99.90;;;;;;5003118;28;20034;-74
2021/10/05 10:00:48;;;;;;;4.45;2.15;;;13.10;99.90;;;;;;4997026;28;20034;-73
2021/10/05 10:03:17;;;;;;;5.78;2.95;;;13.20;99.90;;;;;;4994797;28;20078;-72
2021/10/05 10:05:46;;;;;;;3.55;2.13;;;13.20;99.90;;;;;;4987544;28;20034;-72
2021/10/05 10:08:12;;;;;;;3.22;2.08;;;13.30;99.90;;;;;;4986361;28;20031;-72
2021/10/05 10:10:39;;;;;;;3.40;2.08;;;13.40;99.90;;;;;;4996145;28;20034;-74
2021/10/05 10:13:08;;;;;;;6.65;2.20;;;13.40;99.90;;;;;;5004020;28;20118;-72
2021/10/05 10:15:36;;;;;;;4.30;1.63;;;13.50;99.90;;;;;;5001621;28;20030;-71
2021/10/05 10:18:11;;;;;;;6.88;2.10;;;13.60;99.90;;;;;;5004327;28;20441;-72
2021/10/05 10:20:41;;;;;;;3.45;1.98;;;13.60;99.90;;;;;;4997034;28;20038;-71
2021/10/05 10:23:21;;;;;;;3.85;2.17;;;13.70;99.90;;;;;;5004179;28;20050;-71
2021/10/05 10:25:58;;;;;;;7.72;2.88;;;13.80;99.90;;;;;;5004027;28;20498;-72
2021/10/05 10:28:39;;;;;;;14.35;2.30;;;13.90;99.90;;;;;;5006953;28;20061;-71
2021/10/05 10:31:12;;;;;;;8.15;1.92;;;14.00;99.90;;;;;;5007926;28;20030;-72
2021/10/05 10:33:59;;;;;;;4.28;2.50;;;14.10;99.90;;;;;;5007839;28;20509;-73
2021/10/05 10:36:37;;;;;;;3.58;2.30;;;14.10;99.90;;;;;;5008431;28;20064;-71
2021/10/05 10:39:13;;;;;;;5.18;2.78;;;14.10;99.90;;;;;;5008121;28;20030;-73
2021/10/05 10:41:42;;;;;;;5.03;2.30;;;14.20;99.90;;;;;;5007566;28;20033;-72
2021/10/05 10:44:11;;;;;;;6.50;2.00;;;14.20;99.90;;;;;;5005850;28;20037;-73
2021/10/05 10:46:39;;;;;;;5.82;2.28;;;14.30;99.90;;;;;;4999060;28;20104;-71
2021/10/05 10:49:13;;;;;;;5.55;2.75;;;14.30;99.90;;;;;;4989458;28;20031;-72
2021/10/05 10:51:41;;;;;;;3.25;1.60;;;14.40;99.90;;;;;;5000515;28;20054;-70
2021/10/05 10:54:17;;;;;;;10.18;2.10;;;14.50;99.90;;;;;;5004393;28;20030;-76
2021/10/05 10:56:44;;;;;;;3.35;2.15;;;14.60;99.90;;;;;;4996645;28;20027;-74
2021/10/05 10:59:14;;;;;;;6.43;2.22;;;14.70;99.90;;;;;;4988124;28;20023;-72
2021/10/05 11:01:49;;;;;;;3.13;1.83;;;14.80;99.90;;;;;;4987773;28;20031;-71
2021/10/05 11:04:17;;;;;;;7.00;2.63;;;14.80;99.90;;;;;;4988329;28;20058;-71
2021/10/05 11:06:48;;;;;;;7.82;1.90;;;14.90;99.90;;;;;;4987881;28;20019;-71
2021/10/05 11:09:15;;;;;;;3.08;1.63;;;14.90;99.90;;;;;;4987734;28;20077;-70
2021/10/05 11:11:49;;;;;;;4.47;2.42;;;15.00;99.90;;;;;;4988032;28;20034;-72
2021/10/05 11:14:30;;;;;;;3.72;1.77;;;15.00;99.90;;;;;;4990549;28;20049;-72
2021/10/05 11:17:02;;;;;;;4.38;2.40;;;15.10;99.90;;;;;;5000329;28;20039;-71
2021/10/05 11:19:35;;;;;;;2.78;1.75;;;15.20;99.90;;;;;;5007542;28;20102;-71
2021/10/05 11:22:06;;;;;;;3.28;1.92;;;15.20;99.90;;;;;;4989487;28;20030;-72
2021/10/05 11:24:47;;;;;;;7.88;2.30;;;15.10;99.90;;;;;;5007432;28;20038;-72
2021/10/05 11:27:16;;;;;;;5.13;2.33;;;15.10;99.90;;;;;;5006981;28;20034;-74
2021/10/05 11:29:43;;;;;;;4.85;2.33;;;15.10;99.90;;;;;;5006904;28;20078;-72
2021/10/05 11:32:12;;;;;;;7.28;1.83;;;15.00;99.90;;;;;;4999770;28;20066;-74
2021/10/05 11:34:40;;;;;;;3.70;2.17;;;15.00;99.90;;;;;;4990966;28;20035;-73
2021/10/05 11:37:08;;;;;;;6.15;2.72;;;15.00;99.90;;;;;;4977359;28;20046;-71
2021/10/05 11:39:36;;;;;;;7.82;2.45;;;15.10;99.90;;;;;;4986913;28;20038;-73
2021/10/05 11:42:12;;;;;;;3.92;2.35;;;15.10;99.90;;;;;;5005142;28;20030;-73
2021/10/05 11:44:46;;;;;;;3.30;1.60;;;15.30;99.90;;;;;;4989193;28;20035;-72
2021/10/05 11:47:17;;;;;;;3.80;1.63;;;15.30;99.90;;;;;;4999022;28;20073;-72
2021/10/05 11:50:01;;;;;;;5.20;1.67;;;15.20;99.90;;;;;;5005496;28;20046;-71
2021/10/05 11:52:32;;;;;;;6.05;2.20;;;15.30;99.90;;;;;;5007042;28;20035;-73
2021/10/05 11:54:58;;;;;;;7.65;2.28;;;15.20;99.90;;;;;;5006413;28;20105;-74
2021/10/05 11:57:29;;;;;;;7.63;2.35;;;15.20;99.90;;;;;;5005524;28;20023;-72
2021/10/05 12:00:07;;;;;;;5.85;2.65;;;15.20;99.90;;;;;;5005364;28;20046;-71
2021/10/05 12:02:37;;;;;;;3.20;1.95;;;15.20;99.90;;;;;;5003735;28;20054;-73
2021/10/05 12:05:04;;;;;;;3.78;2.05;;;15.20;99.90;;;;;;4981056;28;20041;-72
2021/10/05 12:07:31;;;;;;;5.05;2.05;;;15.20;99.90;;;;;;5006792;28;20033;-73
2021/10/05 12:10:07;;;;;;;2.75;1.60;;;15.20;99.90;;;;;;5000850;28;20046;-71
2021/10/05 12:12:35;;;;;;;4.47;2.05;;;15.20;99.90;;;;;;5000219;28;20125;-72
2021/10/05 12:15:11;;;;;;;6.53;1.52;;;15.10;99.90;;;;;;4999737;28;20092;-74
2021/10/05 12:17:37;;;;;;;2.22;1.42;;;15.10;99.90;;;;;;5004489;28;20022;-75
2021/10/05 12:20:13;;;;;;;4.03;1.88;;;15.10;99.90;;;;;;5004388;28;20032;-73
2021/10/05 12:22:43;;;;;;;3.55;1.55;;;15.10;99.90;;;;;;5001926;28;20038;-71
2021/10/05 12:25:19;;;;;;;8.40;2.22;;;15.00;99.90;;;;;;5006120;28;20050;-74
2021/10/05 12:27:47;;;;;;;5.22;1.90;;;15.00;99.90;;;;;;4988442;28;20479;-73
2021/10/05 12:30:15;;;;;;;3.80;1.45;;;15.00;99.90;;;;;;4988268;28;20022;-73
2021/10/05 12:32:48;;;;;;;3.50;2.22;;;15.00;99.90;;;;;;5005698;28;20090;-71
2021/10/05 12:35:37;;;;;;;3.65;1.38;;;15.10;99.90;;;;;;5000802;28;20038;-72
2021/10/05 12:38:12;;;;;;;3.63;1.95;;;15.10;99.90;;;;;;5005848;28;20057;-72
2021/10/05 12:40:52;;;;;;;5.95;2.38;;;15.20;99.90;;;;;;5005791;28;20466;-73
2021/10/05 12:43:21;;;;;;;2.63;1.45;;;15.40;99.90;;;;;;5005543;28;20050;-70
2021/10/05 12:45:56;;;;;;;1.90;1.30;;;15.50;99.90;;;;;;5004402;28;20601;-71
2021/10/05 12:48:36;;;;;;;1.60;1.03;;;15.60;99.90;;;;;;5005560;28;20054;-71
2021/10/05 12:51:25;;;;;;;1.95;1.10;;;15.60;99.90;;;;;;5004745;28;20069;-71
2021/10/05 12:53:55;;;;;;;3.38;1.50;;;15.60;99.90;;;;;;5005415;28;20046;-73
2021/10/05 12:56:25;;;;;;;1.65;1.23;;;15.60;99.90;;;;;;4988307;28;20053;-73
2021/10/05 12:58:51;;;;;;;2.33;1.13;;;15.60;99.90;;;;;;5003720;28;20037;-73